createdAt,value
2023-04-13T00:00:39.758Z,6.07
2023-04-13T00:03:08.792Z,5.57
2023-04-13T00:05:36.434Z,6.03
2023-04-13T00:08:04.691Z,6.40
2023-04-13T00:10:36.251Z,5.68
2023-04-13T00:13:05.323Z,5.70
2023-04-13T00:15:34.880Z,6.13
2023-04-13T00:18:02.318Z,6.30
2023-04-13T00:20:30.022Z,5.75
2023-04-13T00:22:57.507Z,6.70
2023-04-13T00:25:24.874Z,6.13
2023-04-13T00:27:55.153Z,6.05
2023-04-13T00:30:22.648Z,6.30
2023-04-13T00:32:50.360Z,6.60
2023-04-13T00:35:19.345Z,5.90
2023-04-13T00:37:47.390Z,6.50
2023-04-13T00:40:16.796Z,6.20
2023-04-13T00:42:45.006Z,6.32
2023-04-13T00:45:13.814Z,6.95
2023-04-13T00:47:43.296Z,6.50
2023-04-13T00:50:10.900Z,6.68
2023-04-13T00:52:38.473Z,6.78
2023-04-13T00:55:06.411Z,7.07
2023-04-13T00:57:34.393Z,7.00
2023-04-13T01:00:11.446Z,7.25
2023-04-13T01:02:42.608Z,7.18
2023-04-13T01:05:12.862Z,7.25
2023-04-13T01:07:45.549Z,7.80
2023-04-13T01:10:21.697Z,7.68
2023-04-13T01:13:03.254Z,7.20
2023-04-13T01:15:32.552Z,7.47
2023-04-13T01:18:07.425Z,8.20
2023-04-13T01:20:37.168Z,7.13
2023-04-13T01:23:24.855Z,7.70
2023-04-13T01:26:00.646Z,7.63
2023-04-13T01:28:28.848Z,7.32
2023-04-13T01:30:57.762Z,7.95
2023-04-13T01:33:25.609Z,7.63
2023-04-13T01:35:55.674Z,8.15
2023-04-13T01:38:25.727Z,8.15
2023-04-13T01:40:53.308Z,8.23
2023-04-13T01:43:21.150Z,8.70
2023-04-13T01:46:04.301Z,8.50
2023-04-13T01:48:37.503Z,7.93
2023-04-13T01:51:08.942Z,8.02
2023-04-13T01:53:43.331Z,8.18
2023-04-13T01:56:13.087Z,8.85
2023-04-13T01:58:40.741Z,8.82
2023-04-13T02:01:08.181Z,8.82
2023-04-13T02:03:36.271Z,9.35
2023-04-13T02:06:03.824Z,9.60
2023-04-13T02:08:35.266Z,9.30
2023-04-13T02:11:03.754Z,9.63
2023-04-13T02:13:31.359Z,9.88
2023-04-13T02:15:59.144Z,10.32
2023-04-13T02:18:26.544Z,10.70
2023-04-13T02:21:08.210Z,10.45
2023-04-13T02:23:36.335Z,10.93
2023-04-13T02:26:04.626Z,10.45
2023-04-13T02:28:33.218Z,10.60
2023-04-13T02:31:00.484Z,10.25
2023-04-13T02:33:31.733Z,10.20
2023-04-13T02:35:59.668Z,10.13
2023-04-13T02:38:28.451Z,10.07
2023-04-13T02:40:56.218Z,9.60
2023-04-13T02:43:23.547Z,9.95
2023-04-13T02:45:51.082Z,9.80
2023-04-13T02:48:18.372Z,9.45
2023-04-13T02:50:46.223Z,9.10
2023-04-13T02:53:13.594Z,9.07
2023-04-13T02:55:41.085Z,9.52
2023-04-13T02:58:09.536Z,9.98
2023-04-13T03:00:37.579Z,9.70
2023-04-13T03:03:06.938Z,9.45
2023-04-13T03:05:34.513Z,8.38
2023-04-13T03:08:02.491Z,9.48
2023-04-13T03:10:31.895Z,9.60
2023-04-13T03:12:59.234Z,9.00
2023-04-13T03:15:26.473Z,8.88
2023-04-13T03:17:53.794Z,8.55
2023-04-13T03:20:23.816Z,8.95
2023-04-13T03:22:53.640Z,8.77
2023-04-13T03:25:21.173Z,9.80
2023-04-13T03:27:48.534Z,9.05
2023-04-13T03:30:16.018Z,8.80
2023-04-13T03:32:43.316Z,9.18
2023-04-13T03:35:11.346Z,9.38
2023-04-13T03:37:43.533Z,9.10
2023-04-13T03:40:11.382Z,9.77
2023-04-13T03:42:38.937Z,10.48
2023-04-13T03:45:07.136Z,11.73
2023-04-13T03:47:35.791Z,14.00
2023-04-13T03:50:03.888Z,14.23
2023-04-13T03:52:31.491Z,13.23
2023-04-13T03:54:58.869Z,13.57
2023-04-13T03:57:27.537Z,13.65
2023-04-13T03:59:54.789Z,14.23
2023-04-13T04:02:22.267Z,13.40
2023-04-13T04:04:49.820Z,13.23
2023-04-13T04:07:17.141Z,11.75
2023-04-13T04:09:44.391Z,10.48
2023-04-13T04:12:14.385Z,10.63
2023-04-13T04:14:42.006Z,11.27
2023-04-13T04:17:09.233Z,11.07
2023-04-13T04:19:37.198Z,10.32
2023-04-13T04:22:07.022Z,11.73
2023-04-13T04:24:34.770Z,12.35
2023-04-13T04:27:02.686Z,11.95
2023-04-13T04:29:35.425Z,11.77
2023-04-13T04:32:03.621Z,11.10
2023-04-13T04:34:31.751Z,11.65
2023-04-13T04:37:03.129Z,11.15
2023-04-13T04:39:33.116Z,10.75
2023-04-13T04:42:03.367Z,9.63
2023-04-13T04:44:31.136Z,9.43
2023-04-13T04:46:59.694Z,9.23
2023-04-13T04:49:28.880Z,8.13
2023-04-13T04:51:57.545Z,8.98
2023-04-13T04:54:25.306Z,8.52
2023-04-13T04:56:52.994Z,9.10
2023-04-13T04:59:20.435Z,9.05
2023-04-13T05:01:49.968Z,9.90
2023-04-13T05:04:17.375Z,10.85
2023-04-13T05:06:45.243Z,10.55
2023-04-13T05:09:12.556Z,10.75
2023-04-13T05:11:39.820Z,10.68
2023-04-13T05:14:07.156Z,10.73
2023-04-13T05:16:34.838Z,9.85
2023-04-13T05:19:02.454Z,9.13
2023-04-13T05:21:29.875Z,8.88
2023-04-13T05:23:57.555Z,8.75
2023-04-13T05:26:25.646Z,8.85
2023-04-13T05:28:53.051Z,8.55
2023-04-13T05:31:20.706Z,8.77
2023-04-13T05:33:48.180Z,7.95
2023-04-13T05:36:15.439Z,8.38
2023-04-13T05:38:43.072Z,8.75
2023-04-13T05:41:10.545Z,9.00
2023-04-13T05:43:37.929Z,8.55
2023-04-13T05:46:05.739Z,8.07
2023-04-13T05:48:34.447Z,8.35
2023-04-13T05:51:01.965Z,8.95
2023-04-13T05:53:29.314Z,8.70
2023-04-13T05:55:57.061Z,8.68
2023-04-13T05:58:26.617Z,7.60
2023-04-13T06:00:54.257Z,8.73
2023-04-13T06:03:21.759Z,8.63
2023-04-13T06:05:49.234Z,7.72
2023-04-13T06:08:17.072Z,8.73
2023-04-13T06:10:44.860Z,8.05
2023-04-13T06:13:12.563Z,6.95
2023-04-13T06:15:40.439Z,7.95
2023-04-13T06:18:07.825Z,8.52
2023-04-13T06:20:35.162Z,7.93
2023-04-13T06:23:02.429Z,8.10
2023-04-13T06:25:29.730Z,8.32
2023-04-13T06:27:57.136Z,7.80
2023-04-13T06:30:24.895Z,7.85
2023-04-13T06:32:52.202Z,8.45
2023-04-13T06:35:19.612Z,7.97
2023-04-13T06:37:47.405Z,7.78
2023-04-13T06:40:15.827Z,7.68
2023-04-13T06:42:43.865Z,8.13
2023-04-13T06:45:11.853Z,7.30
2023-04-13T06:47:42.881Z,7.75
2023-04-13T06:50:11.519Z,7.10
2023-04-13T06:52:38.831Z,7.25
2023-04-13T06:55:07.253Z,6.82
2023-04-13T06:57:34.589Z,7.70
2023-04-13T07:00:01.889Z,7.30
2023-04-13T07:02:29.317Z,7.07
2023-04-13T07:04:56.740Z,6.47
2023-04-13T07:07:24.076Z,7.35
2023-04-13T07:09:51.368Z,7.18
2023-04-13T07:12:18.600Z,6.53
2023-04-13T07:14:46.572Z,7.07
2023-04-13T07:17:14.362Z,8.10
2023-04-13T07:19:46.640Z,7.43
2023-04-13T07:22:14.965Z,7.45
2023-04-13T07:24:42.539Z,7.28
2023-04-13T07:27:09.860Z,7.57
2023-04-13T07:29:37.675Z,7.85
2023-04-13T07:32:06.220Z,7.32
2023-04-13T07:34:33.690Z,7.32
2023-04-13T07:37:01.287Z,7.53
2023-04-13T07:39:28.591Z,8.25
2023-04-13T07:41:57.280Z,8.07
2023-04-13T07:44:24.651Z,8.00
2023-04-13T07:46:52.172Z,7.63
2023-04-13T07:49:19.490Z,6.82
2023-04-13T07:51:46.800Z,7.45
2023-04-13T07:54:16.407Z,7.57
2023-04-13T07:56:44.030Z,7.28
2023-04-13T07:59:11.351Z,7.68
2023-04-13T08:01:39.342Z,7.85
2023-04-13T08:04:07.177Z,9.38
2023-04-13T08:06:35.278Z,7.18
2023-04-13T08:09:02.553Z,7.13
2023-04-13T08:11:29.850Z,7.55
2023-04-13T08:13:57.140Z,7.45
2023-04-13T08:16:24.535Z,8.02
2023-04-13T08:18:52.056Z,7.80
2023-04-13T08:21:19.383Z,7.20
2023-04-13T08:23:46.776Z,7.93
2023-04-13T08:26:21.139Z,7.85
2023-04-13T08:28:49.015Z,8.45
2023-04-13T08:31:19.002Z,8.30
2023-04-13T08:33:47.027Z,7.93
2023-04-13T08:36:14.309Z,7.70
2023-04-13T08:38:41.635Z,7.53
2023-04-13T08:41:10.589Z,8.05
2023-04-13T08:43:37.884Z,7.47
2023-04-13T08:46:06.156Z,8.20
2023-04-13T08:48:46.369Z,7.32
2023-04-13T08:51:23.318Z,7.93
2023-04-13T08:53:50.611Z,8.07
2023-04-13T08:56:18.113Z,7.95
2023-04-13T08:58:47.645Z,8.30
2023-04-13T09:01:15.710Z,8.63
2023-04-13T09:03:54.036Z,8.60
2023-04-13T09:06:26.084Z,7.80
2023-04-13T09:08:57.524Z,8.00
2023-04-13T09:11:25.638Z,8.65
2023-04-13T09:13:53.112Z,8.48
2023-04-13T09:16:20.467Z,8.35
2023-04-13T09:18:55.642Z,7.78
2023-04-13T09:21:23.717Z,8.57
2023-04-13T09:23:58.074Z,8.70
2023-04-13T09:26:25.597Z,8.40
2023-04-13T09:28:54.921Z,8.57
2023-04-13T09:31:24.494Z,8.30
2023-04-13T09:33:52.744Z,8.50
2023-04-13T09:36:20.977Z,8.40
2023-04-13T09:38:57.923Z,8.10
2023-04-13T09:41:29.527Z,8.43
2023-04-13T09:43:56.850Z,8.60
2023-04-13T09:46:24.182Z,8.80
2023-04-13T09:49:04.966Z,8.88
2023-04-13T09:51:42.155Z,8.80
2023-04-13T09:54:09.886Z,8.77
2023-04-13T09:56:53.036Z,9.00
2023-04-13T09:59:20.515Z,8.90
2023-04-13T10:01:48.494Z,8.90
2023-04-13T10:04:16.488Z,8.25
2023-04-13T10:06:44.895Z,8.77
2023-04-13T10:09:13.017Z,8.65
2023-04-13T10:12:01.678Z,8.55
2023-04-13T10:14:32.788Z,9.15
2023-04-13T10:19:31.506Z,8.70
2023-04-13T10:21:59.244Z,8.68
2023-04-13T10:24:27.347Z,8.13
2023-04-13T10:26:56.309Z,8.95
2023-04-13T10:29:30.779Z,9.10
2023-04-13T10:32:03.599Z,8.95
2023-04-13T10:34:32.637Z,8.60
2023-04-13T10:37:04.179Z,8.60
2023-04-13T10:39:33.304Z,8.63
2023-04-13T10:42:08.013Z,25.38
2023-04-13T10:45:01.348Z,9.32
2023-04-13T10:47:37.199Z,7.72
2023-04-13T10:50:04.593Z,7.97
2023-04-13T10:52:31.996Z,9.02
2023-04-13T10:54:59.399Z,9.32
2023-04-13T10:57:35.079Z,8.57
2023-04-13T11:00:04.430Z,8.77
2023-04-13T11:02:33.031Z,10.18
2023-04-13T11:05:01.281Z,8.45
2023-04-13T11:07:28.936Z,8.40
2023-04-13T11:10:03.241Z,9.38
2023-04-13T11:12:31.428Z,9.35
2023-04-13T11:14:58.889Z,8.43
2023-04-13T11:17:26.361Z,9.70
2023-04-13T11:19:54.750Z,9.65
2023-04-13T11:22:23.987Z,9.80
2023-04-13T11:24:51.888Z,9.43
2023-04-13T11:27:20.308Z,9.70
2023-04-13T11:29:47.737Z,10.13
2023-04-13T11:32:18.782Z,10.15
2023-04-13T11:34:49.482Z,10.50
2023-04-13T11:37:16.886Z,10.05
2023-04-13T11:39:44.162Z,9.85
2023-04-13T11:42:12.399Z,10.82
2023-04-13T11:44:39.875Z,10.60
2023-04-13T11:47:08.969Z,11.15
2023-04-13T11:49:36.822Z,10.23
2023-04-13T11:52:04.244Z,10.45
2023-04-13T11:54:31.833Z,10.90
2023-04-13T11:56:59.272Z,10.00
2023-04-13T11:59:26.552Z,10.85
2023-04-13T12:02:02.285Z,10.73
2023-04-13T12:04:41.303Z,10.43
2023-04-13T12:07:14.183Z,10.75
2023-04-13T12:09:55.965Z,11.13
2023-04-13T12:15:12.380Z,10.77
2023-04-13T12:17:49.485Z,11.00
2023-04-13T12:20:17.859Z,10.77
2023-04-13T12:22:52.321Z,10.77
2023-04-13T12:25:25.149Z,10.65
2023-04-13T12:27:53.727Z,10.52
2023-04-13T12:30:21.680Z,10.73
2023-04-13T12:32:49.931Z,9.93
2023-04-13T12:35:19.427Z,10.20
2023-04-13T12:37:47.396Z,10.50
2023-04-13T12:40:15.769Z,10.02
2023-04-13T12:42:45.638Z,10.70
2023-04-13T12:45:14.013Z,10.30
2023-04-13T12:47:41.784Z,9.23
2023-04-13T12:50:10.634Z,9.07
2023-04-13T12:52:38.515Z,7.78
2023-04-13T12:55:06.745Z,7.85
2023-04-13T12:57:34.066Z,7.38
2023-04-13T13:00:01.347Z,6.95
2023-04-13T13:02:31.086Z,7.63
2023-04-13T13:04:59.234Z,7.63
2023-04-13T13:07:28.120Z,7.32
2023-04-13T13:09:56.049Z,7.45
2023-04-13T13:12:23.881Z,7.38
2023-04-13T13:14:51.194Z,7.88
2023-04-13T13:17:18.666Z,7.88
2023-04-13T13:19:46.313Z,7.82
2023-04-13T13:22:13.633Z,7.88
2023-04-13T13:24:41.119Z,6.68
2023-04-13T13:29:39.279Z,6.30
2023-04-13T13:32:06.980Z,6.80
2023-04-13T13:34:34.292Z,6.35
2023-04-13T13:37:01.574Z,6.15
2023-04-13T13:39:28.827Z,6.25
2023-04-13T13:41:57.384Z,6.07
2023-04-13T13:44:25.450Z,6.57
2023-04-13T13:46:53.358Z,6.05
2023-04-13T13:49:20.593Z,6.03
2023-04-13T13:51:50.365Z,6.00
2023-04-13T13:54:17.883Z,6.65
2023-04-13T13:56:45.142Z,6.95
2023-04-13T13:59:12.886Z,6.20
2023-04-13T14:01:40.141Z,6.28
2023-04-13T14:04:07.460Z,5.93
2023-04-13T14:06:34.832Z,7.20
2023-04-13T14:09:02.450Z,6.85
2023-04-13T14:11:31.489Z,6.93
2023-04-13T14:14:07.911Z,7.18
2023-04-13T14:16:42.099Z,6.70
2023-04-13T14:19:09.335Z,7.13
2023-04-13T14:21:36.609Z,7.15
2023-04-13T14:24:03.891Z,7.30
2023-04-13T14:26:31.271Z,7.32
2023-04-13T14:28:58.709Z,6.82
2023-04-13T14:31:26.165Z,6.88
2023-04-13T14:33:53.469Z,7.20
2023-04-13T14:36:21.313Z,6.80
2023-04-13T14:38:48.824Z,5.90
2023-04-13T14:41:16.302Z,5.45
2023-04-13T14:43:43.585Z,5.40
2023-04-13T14:46:11.254Z,5.40
2023-04-13T14:48:38.632Z,5.65
2023-04-13T14:51:07.351Z,5.47
2023-04-13T14:53:34.606Z,5.38
2023-04-13T14:56:05.589Z,5.85
2023-04-13T14:58:32.964Z,5.15
2023-04-13T15:01:00.316Z,5.25
2023-04-13T15:03:29.134Z,5.20
2023-04-13T15:06:03.506Z,5.55
2023-04-13T15:08:31.796Z,5.32
2023-04-13T15:10:59.352Z,4.63
2023-04-13T15:13:26.611Z,4.55
2023-04-13T15:15:55.076Z,5.28
2023-04-13T15:18:22.500Z,5.03
2023-04-13T15:20:49.884Z,4.97
2023-04-13T15:23:18.739Z,5.32
2023-04-13T15:25:47.535Z,5.43
2023-04-13T15:28:14.838Z,5.70
2023-04-13T15:30:43.344Z,5.70
2023-04-13T15:33:10.985Z,6.43
2023-04-13T15:35:38.450Z,5.57
2023-04-13T15:38:05.926Z,5.70
2023-04-13T15:40:37.226Z,5.10
2023-04-13T15:43:05.126Z,5.45
2023-04-13T15:45:32.860Z,5.97
2023-04-13T15:48:00.436Z,5.35
2023-04-13T15:50:28.210Z,5.70
2023-04-13T15:52:55.486Z,5.43
2023-04-13T15:55:22.815Z,5.50
2023-04-13T15:57:50.829Z,5.43
2023-04-13T16:00:18.505Z,5.53
2023-04-13T16:02:46.085Z,5.55
2023-04-13T16:05:13.524Z,5.63
2023-04-13T16:07:40.792Z,5.38
2023-04-13T16:10:08.502Z,5.32
2023-04-13T16:12:38.971Z,5.38
2023-04-13T16:15:06.547Z,5.13
2023-04-13T16:17:33.916Z,5.15
2023-04-13T16:20:21.013Z,5.18
2023-04-13T16:22:50.665Z,5.70
2023-04-13T16:25:19.323Z,5.38
2023-04-13T16:27:48.526Z,5.95
2023-04-13T16:30:17.554Z,5.88
2023-04-13T16:32:45.740Z,5.40
2023-04-13T16:35:13.435Z,5.60
2023-04-13T16:37:42.428Z,5.93
2023-04-13T16:40:13.137Z,6.03
2023-04-13T16:42:41.006Z,5.85
2023-04-13T16:45:14.675Z,5.75
2023-04-13T16:47:42.707Z,6.60
2023-04-13T16:50:10.980Z,5.05
2023-04-13T16:52:41.092Z,5.72
2023-04-13T16:55:11.156Z,6.00
2023-04-13T16:57:38.412Z,5.40
2023-04-13T17:00:10.863Z,5.20
2023-04-13T17:02:39.530Z,5.63
2023-04-13T17:05:10.783Z,5.85
2023-04-13T17:10:06.055Z,5.90
2023-04-13T17:12:33.308Z,5.43
2023-04-13T17:15:05.255Z,9.38
2023-04-13T17:17:32.961Z,5.60
2023-04-13T17:20:00.352Z,6.43
2023-04-13T17:22:28.004Z,5.18
2023-04-13T17:24:55.274Z,5.63
2023-04-13T17:27:22.566Z,5.88
2023-04-13T17:29:50.057Z,5.50
2023-04-13T17:32:19.692Z,5.93
2023-04-13T17:34:47.286Z,5.20
2023-04-13T17:37:14.573Z,5.30
2023-04-13T17:39:46.404Z,5.75
2023-04-13T17:42:16.428Z,5.43
2023-04-13T17:44:44.062Z,5.18
2023-04-13T17:47:11.394Z,5.10
2023-04-13T17:49:38.971Z,5.03
2023-04-13T17:52:06.317Z,4.68
2023-04-13T17:54:33.853Z,5.18
2023-04-13T17:57:02.026Z,5.22
2023-04-13T17:59:29.327Z,5.30
2023-04-13T18:01:56.599Z,5.70
2023-04-13T18:04:26.656Z,5.18
2023-04-13T18:06:56.503Z,5.50
2023-04-13T18:09:25.166Z,5.38
2023-04-13T18:11:52.507Z,5.68
2023-04-13T18:14:19.770Z,5.47
2023-04-13T18:16:47.063Z,5.95
2023-04-13T18:19:14.657Z,5.15
2023-04-13T18:21:41.956Z,5.15
2023-04-13T18:24:09.331Z,5.40
2023-04-13T18:26:36.586Z,5.68
2023-04-13T18:29:03.934Z,5.82
2023-04-13T18:31:31.397Z,5.93
2023-04-13T18:33:58.996Z,5.85
2023-04-13T18:36:26.886Z,5.50
2023-04-13T18:38:55.193Z,5.88
2023-04-13T18:41:24.905Z,5.28
2023-04-13T18:43:52.161Z,6.13
2023-04-13T18:46:20.525Z,5.82
2023-04-13T18:48:47.839Z,5.45
2023-04-13T18:51:15.122Z,5.93
2023-04-13T18:53:42.371Z,5.35
2023-04-13T18:56:09.637Z,6.28
2023-04-13T18:58:36.896Z,5.95
2023-04-13T19:01:04.357Z,5.63
2023-04-13T19:03:31.767Z,6.15
2023-04-13T19:05:59.143Z,6.28
2023-04-13T19:08:26.404Z,6.13
2023-04-13T19:10:53.667Z,6.10
2023-04-13T19:13:20.950Z,6.20
2023-04-13T19:15:48.376Z,6.32
2023-04-13T19:18:15.645Z,5.95
2023-04-13T19:20:42.877Z,6.65
2023-04-13T19:23:10.183Z,6.65
2023-04-13T19:25:37.510Z,6.18
2023-04-13T19:28:06.182Z,6.38
2023-04-13T19:30:33.542Z,6.63
2023-04-13T19:33:00.946Z,6.43
2023-04-13T19:35:28.773Z,6.25
2023-04-13T19:37:56.330Z,6.65
2023-04-13T19:40:24.278Z,6.35
2023-04-13T19:42:51.528Z,6.28
2023-04-13T19:45:18.805Z,7.00
2023-04-13T19:47:46.656Z,6.00
2023-04-13T19:50:14.763Z,6.18
2023-04-13T19:52:42.533Z,6.43
2023-04-13T19:55:10.946Z,6.82
2023-04-13T19:57:42.044Z,6.20
2023-04-13T20:00:20.816Z,6.25
2023-04-13T20:02:49.927Z,6.38
2023-04-13T20:05:17.757Z,6.57
2023-04-13T20:07:45.081Z,6.32
2023-04-13T20:10:13.221Z,6.40
2023-04-13T20:12:42.968Z,6.82
2023-04-13T20:15:10.430Z,6.53
2023-04-13T20:17:37.787Z,6.68
2023-04-13T20:20:06.653Z,6.90
2023-04-13T20:22:34.009Z,6.60
2023-04-13T20:25:01.235Z,6.03
2023-04-13T20:27:29.806Z,6.70
2023-04-13T20:29:57.101Z,6.30
2023-04-13T20:32:24.408Z,6.90
2023-04-13T20:34:52.229Z,6.40
2023-04-13T20:37:19.542Z,6.22
2023-04-13T20:39:50.499Z,6.80
2023-04-13T20:42:22.463Z,7.05
2023-04-13T20:44:57.566Z,7.53
2023-04-13T20:47:28.905Z,6.90
2023-04-13T20:50:00.074Z,6.80
2023-04-13T20:52:29.975Z,6.40
2023-04-13T20:54:58.375Z,6.20
2023-04-13T20:57:25.904Z,6.32
2023-04-13T20:59:54.349Z,6.35
2023-04-13T21:02:21.925Z,6.55
2023-04-13T21:04:49.461Z,6.70
2023-04-13T21:07:16.791Z,7.05
2023-04-13T21:09:44.288Z,7.35
2023-04-13T21:12:11.560Z,6.72
2023-04-13T21:14:38.809Z,6.38
2023-04-13T21:17:06.110Z,6.93
2023-04-13T21:19:34.154Z,7.07
2023-04-13T21:22:02.361Z,6.97
2023-04-13T21:24:29.589Z,7.07
2023-04-13T21:26:57.017Z,7.38
2023-04-13T21:29:24.572Z,7.13
2023-04-13T21:31:51.956Z,6.88
2023-04-13T21:34:19.471Z,6.70
2023-04-13T21:39:17.304Z,7.70
2023-04-13T21:41:44.549Z,8.32
2023-04-13T21:49:42.620Z,7.20
2023-04-13T21:52:12.085Z,7.13
2023-04-13T21:54:39.345Z,7.47
2023-04-13T21:57:06.648Z,7.45
2023-04-13T21:59:33.909Z,7.10
2023-04-13T22:02:01.211Z,8.40
2023-04-13T22:04:28.770Z,7.13
2023-04-13T22:06:56.194Z,8.15
2023-04-13T22:09:23.475Z,8.00
2023-04-13T22:11:51.774Z,7.93
2023-04-13T22:14:19.444Z,8.13
2023-04-13T22:16:47.735Z,7.72
2023-04-13T22:19:16.177Z,8.25
2023-04-13T22:21:43.445Z,8.18
2023-04-13T22:24:10.672Z,8.25
2023-04-13T22:26:37.927Z,7.50
2023-04-13T22:29:05.344Z,7.38
2023-04-13T22:31:32.612Z,7.20
2023-04-13T22:33:59.921Z,7.72
2023-04-13T22:36:27.201Z,7.25
2023-04-13T22:38:54.882Z,7.72
2023-04-13T22:41:22.217Z,7.55
2023-04-13T22:43:49.457Z,6.95
2023-04-13T22:46:16.767Z,7.45
2023-04-13T22:48:44.104Z,6.55
2023-04-13T22:51:11.690Z,7.22
2023-04-13T22:53:38.935Z,7.38
2023-04-13T22:56:06.481Z,7.60
2023-04-13T22:58:33.777Z,8.00
2023-04-13T23:01:01.429Z,7.70
2023-04-13T23:03:28.848Z,7.65
2023-04-13T23:05:56.461Z,7.72
2023-04-13T23:08:23.696Z,7.68
2023-04-13T23:10:53.174Z,7.47
2023-04-13T23:13:20.470Z,7.45
2023-04-13T23:15:49.939Z,7.40
2023-04-13T23:18:17.210Z,7.13
2023-04-13T23:20:44.463Z,7.25
2023-04-13T23:23:11.720Z,7.53
2023-04-13T23:25:39.027Z,7.20
2023-04-13T23:28:06.303Z,7.30
2023-04-13T23:30:33.597Z,7.78
2023-04-13T23:33:00.907Z,7.13
2023-04-13T23:35:28.240Z,7.38
2023-04-13T23:37:55.557Z,7.68
2023-04-13T23:40:22.842Z,8.13
2023-04-13T23:42:52.305Z,7.25
2023-04-13T23:45:19.600Z,8.02
2023-04-13T23:47:46.897Z,8.52
2023-04-13T23:50:17.928Z,8.63
2023-04-13T23:52:45.700Z,8.18
2023-04-13T23:55:12.981Z,7.63
2023-04-13T23:57:40.264Z,8.05
